Time;durP1;ratioP1;P1;durP2;ratioP2;P2;SDS_P1;SDS_P2;PMS_P1;PMS_P2;Temp;Humidity;BMP_temperature;BMP_pressure;BME280_temperature;BME280_humidity;BME280_pressure;Samples;Min_cycle;Max_cycle;Signal;HPM_P1;HPM_P2
2022/10/13 00:00:02;;;;;;;6.57;3.75;;;11.20;99.90;;;11.22;100.00;101476.88;5244413;28;20523;-71
2022/10/13 00:02:44;;;;;;;6.75;3.33;;;11.10;99.90;;;11.17;100.00;101486.22;5244771;28;20516;-72
2022/10/13 00:05:17;;;;;;;6.53;3.38;;;11.10;99.90;;;11.10;100.00;101474.63;5243450;28;20056;-70
2022/10/13 00:07:49;;;;;;;6.85;3.60;;;11.00;99.90;;;11.06;100.00;101486.63;5245280;28;20040;-71
2022/10/13 00:10:22;;;;;;;6.72;3.30;;;11.00;99.90;;;11.03;100.00;101472.56;5244574;28;20045;-70
2022/10/13 00:12:54;;;;;;;7.97;3.70;;;10.90;99.90;;;11.01;100.00;101485.53;5243451;28;20056;-70
2022/10/13 00:15:28;;;;;;;6.55;3.45;;;10.90;99.90;;;11.02;100.00;101478.59;5243154;28;20045;-72
2022/10/13 00:18:00;;;;;;;7.07;3.40;;;10.90;99.90;;;11.05;100.00;101481.34;5244742;28;20505;-67
2022/10/13 00:20:33;;;;;;;6.15;3.58;;;10.90;99.90;;;11.04;100.00;101480.44;5247798;28;20412;-71
2022/10/13 00:23:05;;;;;;;8.05;3.97;;;10.90;99.90;;;11.08;100.00;101477.16;5248668;28;20048;-70
2022/10/13 00:25:42;;;;;;;8.90;3.72;;;11.00;99.90;;;11.16;100.00;101479.22;5248158;28;20409;-70
2022/10/13 00:28:18;;;;;;;6.60;3.50;;;11.00;99.90;;;11.19;100.00;101475.00;5247160;28;20060;-70
2022/10/13 00:30:50;;;;;;;7.55;3.38;;;11.10;99.90;;;11.22;100.00;101469.94;5247869;28;20044;-71
2022/10/13 00:33:22;;;;;;;8.18;3.55;;;11.10;99.90;;;11.26;100.00;101470.94;5248016;28;20059;-72
2022/10/13 00:35:56;;;;;;;7.20;3.58;;;11.20;99.90;;;11.27;100.00;101472.72;5246861;28;20067;-72
2022/10/13 00:38:28;;;;;;;8.38;3.67;;;11.20;99.90;;;11.27;100.00;101464.88;5248357;28;20043;-75
2022/10/13 00:41:01;;;;;;;7.40;3.53;;;11.20;99.90;;;11.26;100.00;101465.72;5246874;28;20044;-71
2022/10/13 00:43:57;;;;;;;7.35;3.50;;;11.20;99.90;;;11.26;100.00;101473.53;5247005;28;20068;-71
2022/10/13 00:46:32;;;;;;;7.78;3.80;;;11.20;99.90;;;11.24;100.00;101472.59;5247863;28;20044;-71
2022/10/13 00:49:07;;;;;;;;;;;11.10;99.90;;;11.22;100.00;101463.81;5246845;28;20060;-72
2022/10/13 00:51:45;;;;;;;6.72;3.33;;;11.10;99.90;;;11.22;100.00;101469.03;5247690;28;19924;-70
2022/10/13 00:54:23;;;;;;;9.25;3.75;;;11.10;99.90;;;11.21;100.00;101464.63;5247827;28;20052;-70
2022/10/13 00:56:56;;;;;;;8.10;3.72;;;11.10;99.90;;;11.21;100.00;101464.63;5247951;28;20040;-71
2022/10/13 00:59:29;;;;;;;7.78;3.42;;;11.10;99.90;;;11.22;100.00;101464.72;5247863;28;20048;-69
2022/10/13 01:02:02;;;;;;;7.53;3.50;;;11.10;99.90;;;11.23;100.00;101465.59;5246095;28;20056;-72
2022/10/13 01:04:40;;;;;;;6.57;3.45;;;11.20;99.90;;;11.23;100.00;101460.38;5247597;28;20059;-68
2022/10/13 01:07:16;;;;;;;6.40;3.25;;;11.20;99.90;;;11.24;100.00;101459.53;5247110;28;20098;-72
2022/10/13 01:09:50;;;;;;;7.63;3.53;;;11.20;99.90;;;11.26;100.00;101455.28;5247411;28;20044;-68
2022/10/13 01:12:40;;;;;;;12.40;3.67;;;11.20;99.90;;;11.31;100.00;101448.53;5247099;28;20071;-71
2022/10/13 01:15:23;;;;;;;9.30;4.05;;;11.20;99.90;;;11.34;100.00;101448.66;5247502;28;20036;-70
2022/10/13 01:18:05;;;;;;;9.68;4.88;;;11.30;99.90;;;11.36;100.00;101434.84;5246954;28;20054;-69
2022/10/13 01:21:05;;;;;;;12.10;4.88;;;11.30;99.90;;;11.41;100.00;101430.72;5247124;28;20127;-70
2022/10/13 01:24:27;;;;;;;13.45;5.85;;;11.40;99.90;;;11.46;100.00;101425.66;5241527;28;20098;-72
2022/10/13 01:27:47;;;;;;;11.25;4.88;;;11.40;99.90;;;11.51;100.00;101431.09;5247163;28;20055;-72
2022/10/13 01:30:22;;;;;;;9.88;5.00;;;11.40;99.90;;;11.54;100.00;101421.69;5214001;28;20088;-68
2022/10/13 01:33:16;;;;;;;9.68;4.40;;;11.50;99.90;;;11.54;100.00;101421.69;5246981;28;20040;-72
2022/10/13 01:35:58;;;;;;;;;;;11.50;99.90;;;11.53;100.00;101417.25;5246466;28;20048;-71
2022/10/13 01:38:38;;;;;;;11.32;4.70;;;11.50;99.90;;;11.51;100.00;101418.91;5245108;28;19931;-70
2022/10/13 01:41:19;;;;;;;8.80;3.95;;;11.40;99.90;;;11.49;100.00;101410.16;5247107;28;20039;-70
2022/10/13 01:43:57;;;;;;;6.85;3.53;;;11.40;99.90;;;11.47;100.00;101409.16;5246953;28;20044;-70
2022/10/13 01:46:34;;;;;;;8.52;4.55;;;11.40;99.90;;;11.46;100.00;101404.78;5246737;28;20048;-70
2022/10/13 01:49:12;;;;;;;7.28;3.72;;;11.40;99.90;;;11.45;100.00;101400.41;5245122;28;20105;-70
2022/10/13 01:51:45;;;;;;;8.98;3.83;;;11.40;99.90;;;11.43;100.00;101402.06;5246562;28;20146;-70
2022/10/13 01:54:17;;;;;;;11.82;5.35;;;11.40;99.90;;;11.42;100.00;101397.69;5246141;28;20394;-71
2022/10/13 01:56:53;;;;;;;9.70;4.05;;;11.40;99.90;;;11.42;100.00;101397.69;5246758;28;20046;-72
2022/10/13 01:59:27;;;;;;;9.73;4.57;;;11.40;99.90;;;11.43;100.00;101399.44;5246395;28;20250;-70
2022/10/13 02:02:15;;;;;;;9.07;3.85;;;11.40;99.90;;;11.44;100.00;101397.72;5246332;28;20052;-70
2022/10/13 02:04:56;;;;;;;8.40;4.07;;;11.30;99.90;;;11.44;100.00;101400.34;5246095;28;20485;-70
2022/10/13 02:07:37;;;;;;;11.63;4.85;;;11.40;99.90;;;11.45;100.00;101386.44;5246357;28;20098;-72
2022/10/13 02:10:18;;;;;;;8.10;3.80;;;11.40;99.90;;;11.46;100.00;101394.34;5245802;28;20051;-70
2022/10/13 02:12:59;;;;;;;8.82;4.20;;;11.40;99.90;;;11.49;100.00;101388.38;5246030;28;20045;-72
2022/10/13 02:15:36;;;;;;;10.48;4.75;;;11.40;99.90;;;11.49;100.00;101386.66;5245776;28;20044;-73
2022/10/13 02:18:17;;;;;;;9.07;4.32;;;11.40;99.90;;;11.52;100.00;101384.16;5246128;28;20094;-71
2022/10/13 02:20:51;;;;;;;8.07;3.97;;;11.40;99.90;;;11.53;100.00;101383.31;5245869;28;20052;-70
2022/10/13 02:23:24;;;;;;;9.75;4.53;;;11.40;99.90;;;11.52;100.00;101385.88;5245810;28;20037;-70
2022/10/13 02:25:59;;;;;;;10.85;4.22;;;11.40;99.90;;;11.50;100.00;101385.81;5245982;28;20048;-70
2022/10/13 02:28:31;;;;;;;9.60;4.35;;;11.40;99.90;;;11.51;100.00;101374.53;5244564;28;20497;-70
2022/10/13 02:31:05;;;;;;;10.05;4.32;;;11.40;99.90;;;11.51;100.00;101368.44;5245591;28;20103;-70
2022/10/13 02:33:39;;;;;;;8.27;3.78;;;11.40;99.90;;;11.52;100.00;101376.31;5247271;28;20582;-70
2022/10/13 02:36:12;;;;;;;8.82;3.97;;;11.40;99.90;;;11.49;100.00;101384.03;5247058;28;20054;-70
2022/10/13 02:38:45;;;;;;;9.40;4.32;;;11.40;99.90;;;11.48;100.00;101379.66;5245621;28;20052;-72
2022/10/13 02:41:18;;;;;;;9.32;3.75;;;11.40;99.90;;;11.47;100.00;101383.06;5244561;28;20044;-69
2022/10/13 02:43:50;;;;;;;8.23;4.05;;;11.40;99.90;;;11.47;100.00;101388.28;5245294;28;20044;-70
2022/10/13 02:46:22;;;;;;;9.57;4.35;;;11.40;99.90;;;11.49;100.00;101386.66;5246611;28;20536;-71
2022/10/13 02:48:56;;;;;;;9.25;3.88;;;11.40;99.90;;;11.51;100.00;101377.16;5247204;28;20041;-71
2022/10/13 02:51:31;;;;;;;11.98;5.05;;;11.40;99.90;;;11.52;100.00;101380.66;5245605;28;20044;-71
2022/10/13 02:54:04;;;;;;;9.25;4.07;;;11.50;99.90;;;11.53;100.00;101391.16;5244139;28;20044;-70
2022/10/13 02:56:37;;;;;;;6.72;3.75;;;11.50;99.90;;;11.54;100.00;101389.41;5245180;28;20040;-70
2022/10/13 02:59:09;;;;;;;8.25;4.43;;;11.40;99.90;;;11.52;100.00;101380.66;5244244;28;20056;-72
2022/10/13 03:01:43;;;;;;;7.80;3.50;;;11.40;99.90;;;11.50;100.00;101387.53;5245412;28;20044;-72
2022/10/13 03:04:16;;;;;;;7.38;3.80;;;11.40;99.90;;;11.46;100.00;101385.63;5245606;28;20055;-72
2022/10/13 03:06:48;;;;;;;9.20;3.42;;;11.40;99.90;;;11.43;100.00;101395.97;5245227;28;20044;-70
2022/10/13 03:09:20;;;;;;;8.80;3.83;;;11.30;99.90;;;11.39;100.00;101390.59;5244068;28;20429;-70
2022/10/13 03:11:53;;;;;;;6.97;3.35;;;11.30;99.90;;;11.36;100.00;101393.09;5245087;28;20051;-70
2022/10/13 03:14:26;;;;;;;9.65;3.72;;;11.30;99.90;;;11.33;100.00;101384.22;5245192;28;20040;-70
2022/10/13 03:16:58;;;;;;;8.10;3.67;;;11.20;99.90;;;11.30;100.00;101391.94;5244115;28;20052;-71
2022/10/13 03:19:31;;;;;;;6.68;3.40;;;11.20;99.90;;;11.27;100.00;101383.97;5266768;22;20123;-68
2022/10/13 03:22:04;;;;;;;7.93;3.55;;;11.20;99.90;;;11.25;100.00;101376.09;5253618;28;20123;-71
2022/10/13 03:24:36;;;;;;;8.18;3.50;;;11.20;99.90;;;11.26;100.00;101377.88;5245715;28;20063;-68
2022/10/13 03:27:09;;;;;;;7.68;3.88;;;11.20;99.90;;;11.26;100.00;101382.19;5245563;28;20382;-68
2022/10/13 03:29:42;;;;;;;7.13;3.65;;;11.20;99.90;;;11.25;100.00;101369.97;5244014;28;20052;-68
2022/10/13 03:32:14;;;;;;;9.38;3.60;;;11.20;99.90;;;11.28;100.00;101375.31;5245845;28;20055;-68
2022/10/13 03:34:48;;;;;;;6.05;3.22;;;11.20;99.90;;;11.29;100.00;101364.06;5243839;28;20044;-68
2022/10/13 03:37:21;;;;;;;7.47;3.35;;;11.20;99.90;;;11.30;100.00;101365.84;5245606;28;20044;-68
2022/10/13 03:39:53;;;;;;;7.13;3.67;;;11.20;99.90;;;11.30;100.00;101364.13;5243657;28;20044;-69
2022/10/13 03:42:25;;;;;;;7.45;4.18;;;11.20;99.90;;;11.33;100.00;101359.00;5245409;28;20051;-70
2022/10/13 03:44:58;;;;;;;8.85;3.75;;;11.30;99.90;;;11.35;100.00;101351.28;5245326;28;20049;-68
2022/10/13 03:47:30;;;;;;;9.90;4.55;;;11.30;99.90;;;11.36;100.00;101347.81;5245858;28;20052;-70
2022/10/13 03:50:05;;;;;;;11.15;4.70;;;11.30;99.90;;;11.35;100.00;101340.84;5244011;28;20052;-68
2022/10/13 03:52:37;;;;;;;9.05;3.92;;;11.30;99.90;;;11.37;100.00;101344.38;5246176;28;20127;-68
2022/10/13 03:55:09;;;;;;;7.75;4.10;;;11.30;99.90;;;11.38;100.00;101338.31;5249209;28;20557;-68
2022/10/13 03:57:41;;;;;;;8.52;3.70;;;11.30;99.90;;;11.40;100.00;101334.06;5249446;28;20047;-68
2022/10/13 04:00:16;;;;;;;7.90;3.63;;;11.30;99.90;;;11.40;100.00;101336.66;5249136;28;20041;-68
2022/10/13 04:02:49;;;;;;;;;;;11.30;99.90;;;11.38;100.00;101336.59;5248416;28;20534;-67
2022/10/13 04:05:22;;;;;;;7.45;3.53;;;11.30;99.90;;;11.37;100.00;101337.44;5247455;28;20015;-69
2022/10/13 04:07:55;;;;;;;6.82;3.20;;;11.30;99.90;;;11.36;100.00;101326.94;5249254;28;20127;-69
2022/10/13 04:10:32;;;;;;;6.10;3.20;;;11.30;99.90;;;11.35;100.00;101325.16;5248714;28;20036;-69
2022/10/13 04:13:05;;;;;;;8.25;3.58;;;11.30;99.90;;;11.32;100.00;101325.03;5248930;28;20058;-69
2022/10/13 04:15:37;;;;;;;7.22;3.70;;;11.30;99.90;;;11.30;100.00;101327.59;5248971;28;20044;-68
2022/10/13 04:18:11;;;;;;;7.20;3.50;;;11.20;99.90;;;11.29;100.00;101335.38;5249039;28;20119;-68
2022/10/13 04:20:45;;;;;;;6.85;3.85;;;11.20;99.90;;;11.26;100.00;101340.44;5248423;28;20406;-69
2022/10/13 04:23:17;;;;;;;8.27;3.83;;;11.20;99.90;;;11.25;100.00;101338.66;5249011;28;20385;-68
2022/10/13 04:25:52;;;;;;;7.05;3.53;;;11.20;99.90;;;11.24;100.00;101336.88;5248628;28;20047;-68
2022/10/13 04:28:25;;;;;;;7.57;3.20;;;11.20;99.90;;;11.21;100.00;101337.63;5247835;28;20052;-68
2022/10/13 04:30:59;;;;;;;8.32;3.58;;;11.10;99.90;;;11.20;100.00;101334.97;5246919;28;20040;-69
2022/10/13 04:33:33;;;;;;;14.02;5.53;;;11.10;99.90;;;11.14;100.00;101320.84;5247360;28;20452;-69
2022/10/13 04:36:10;;;;;;;14.63;5.68;;;11.10;99.90;;;11.09;100.00;101322.41;5248677;28;20068;-69
2022/10/13 04:38:43;;;;;;;9.43;4.35;;;11.10;99.90;;;11.10;100.00;101328.50;5248613;28;20133;-69
2022/10/13 04:41:16;;;;;;;8.55;4.28;;;11.10;99.90;;;11.10;100.00;101324.16;5248005;28;20527;-69
2022/10/13 04:43:49;;;;;;;9.82;3.95;;;11.10;99.90;;;11.12;100.00;101326.84;5247119;28;20520;-69
2022/10/13 04:46:24;;;;;;;7.32;3.83;;;11.00;99.90;;;11.10;100.00;101326.78;5247642;28;20049;-70
2022/10/13 04:48:57;;;;;;;7.03;3.85;;;11.10;99.90;;;11.10;100.00;101323.28;5246954;28;20052;-70
2022/10/13 04:51:39;;;;;;;6.60;3.30;;;11.10;99.90;;;11.08;100.00;101322.31;5248028;28;20098;-69
2022/10/13 04:54:11;;;;;;;8.40;3.58;;;11.00;99.90;;;11.08;100.00;101319.69;5248200;28;20045;-69
2022/10/13 04:56:45;;;;;;;7.40;3.42;;;11.00;99.90;;;11.07;100.00;101317.91;5247897;28;20045;-68
2022/10/13 04:59:18;;;;;;;7.85;3.60;;;11.00;99.90;;;11.05;100.00;101310.03;5246686;28;20060;-69
2022/10/13 05:01:50;;;;;;;6.50;3.53;;;11.00;99.90;;;11.07;100.00;101310.97;5247761;28;20037;-69
2022/10/13 05:04:23;;;;;;;6.72;3.20;;;11.00;99.90;;;11.07;100.00;101310.97;5247196;28;20045;-69
2022/10/13 05:06:56;;;;;;;7.50;3.47;;;11.00;99.90;;;11.08;100.00;101307.56;5247709;28;20044;-69
2022/10/13 05:09:29;;;;;;;7.65;3.22;;;11.00;99.90;;;11.10;100.00;101316.34;5246803;28;20417;-69
2022/10/13 05:12:03;;;;;;;8.73;4.07;;;11.00;99.90;;;11.11;100.00;101314.63;5247405;28;20393;-69
2022/10/13 05:14:35;;;;;;;7.30;3.42;;;11.00;99.90;;;11.14;100.00;101310.41;5246673;28;20048;-69
2022/10/13 05:17:10;;;;;;;6.68;3.28;;;11.00;99.90;;;11.17;100.00;101303.53;5246409;28;20071;-69
2022/10/13 05:19:43;;;;;;;9.77;3.70;;;11.10;99.90;;;11.17;100.00;101309.66;5247981;28;20070;-69
2022/10/13 05:22:17;;;;;;;7.53;3.53;;;11.10;99.90;;;11.20;100.00;101311.47;5247534;28;20048;-69
2022/10/13 05:24:49;;;;;;;8.27;3.60;;;11.10;99.90;;;11.21;100.00;101303.72;5246152;28;20056;-69
2022/10/13 05:27:22;;;;;;;9.90;4.45;;;11.20;99.90;;;11.21;100.00;101288.06;5247596;28;20572;-69
2022/10/13 05:29:54;;;;;;;9.23;4.68;;;11.20;99.90;;;11.20;100.00;101288.00;5247626;28;20374;-69
2022/10/13 05:32:26;;;;;;;8.18;3.95;;;11.20;99.90;;;11.22;100.00;101307.25;5246870;28;20036;-66
2022/10/13 05:34:58;;;;;;;7.63;3.75;;;11.10;99.90;;;11.21;100.00;101306.31;5247135;28;20048;-66
2022/10/13 05:37:31;;;;;;;10.30;4.65;;;11.20;99.90;;;11.19;100.00;101287.09;5245964;28;20394;-66
2022/10/13 05:40:04;;;;;;;9.68;4.50;;;11.20;99.90;;;11.14;100.00;101284.31;5246589;28;20052;-66
2022/10/13 05:42:37;;;;;;;8.40;4.30;;;11.10;99.90;;;11.16;100.00;101296.56;5246953;28;20381;-67
2022/10/13 05:45:12;;;;;;;7.97;3.78;;;11.10;99.90;;;11.17;100.00;101291.38;5247273;28;20127;-66
2022/10/13 05:47:44;;;;;;;9.88;4.35;;;11.10;99.90;;;11.18;100.00;101289.66;5246756;28;20048;-66
2022/10/13 05:50:17;;;;;;;6.35;3.53;;;11.10;99.90;;;11.18;100.00;101289.66;5246382;28;20046;-66
2022/10/13 05:52:52;;;;;;;7.05;3.33;;;11.10;99.90;;;11.19;100.00;101283.63;5246458;28;20094;-66
2022/10/13 05:55:24;;;;;;;8.35;4.50;;;11.10;99.90;;;11.18;100.00;101279.22;5247152;28;20048;-66
2022/10/13 05:57:56;;;;;;;8.00;3.85;;;11.10;99.90;;;11.18;100.00;101281.84;5247113;28;20392;-66
2022/10/13 06:00:29;;;;;;;7.10;3.88;;;11.10;99.90;;;11.17;100.00;101269.63;5247077;28;20068;-67
2022/10/13 06:03:08;;;;;;;8.85;3.75;;;11.10;99.90;;;11.16;100.00;101276.56;5244080;28;20044;-69
2022/10/13 06:05:42;;;;;;;6.55;3.28;;;11.10;99.90;;;11.17;100.00;101274.84;5240754;28;20692;-57
2022/10/13 06:08:15;;;;;;;6.57;3.25;;;11.10;99.90;;;11.17;100.00;101283.56;5236507;28;20032;-57
2022/10/13 06:10:49;;;;;;;6.65;3.05;;;11.10;99.90;;;11.17;100.00;101278.34;5244935;28;20481;-56
2022/10/13 06:13:21;;;;;;;6.82;3.05;;;11.10;99.90;;;11.20;100.00;101291.50;5245897;28;20056;-57
2022/10/13 06:15:53;;;;;;;6.63;3.30;;;11.10;99.90;;;11.20;100.00;101277.56;5245390;28;20040;-58
2022/10/13 06:18:26;;;;;;;9.52;3.55;;;11.10;99.90;;;11.20;100.00;101274.94;5246096;28;20584;-57
2022/10/13 06:20:58;;;;;;;7.28;3.55;;;11.20;99.90;;;11.21;100.00;101277.59;5246073;28;20036;-57
2022/10/13 06:23:31;;;;;;;6.28;3.10;;;11.20;99.90;;;11.21;100.00;101279.34;5246650;28;20049;-57
2022/10/13 06:26:03;;;;;;;10.13;3.70;;;11.20;99.90;;;11.20;100.00;101282.78;5246552;28;20059;-57
2022/10/13 06:28:36;;;;;;;7.78;3.50;;;11.10;99.90;;;11.20;100.00;101281.06;5244971;28;20036;-57
2022/10/13 06:31:08;;;;;;;7.13;3.17;;;11.10;99.90;;;11.21;100.00;101279.34;5243168;28;20536;-57
2022/10/13 06:33:40;;;;;;;11.57;4.88;;;11.10;99.90;;;11.20;100.00;101268.00;5245553;28;20159;-57
2022/10/13 06:36:12;;;;;;;7.72;4.10;;;11.10;99.90;;;11.20;100.00;101274.94;5245583;28;20405;-57
2022/10/13 06:38:46;;;;;;;8.68;4.28;;;11.20;99.90;;;11.24;100.00;101287.31;5236882;28;20040;-57
2022/10/13 06:41:19;;;;;;;6.78;3.08;;;11.20;99.90;;;11.27;100.00;101290.03;5238731;28;20559;-58
2022/10/13 06:43:51;;;;;;;7.30;3.28;;;11.20;99.90;;;11.29;100.00;101284.06;5242686;28;20052;-57
2022/10/13 06:46:23;;;;;;;9.95;4.95;;;11.20;99.90;;;11.29;100.00;101277.94;5243672;28;20049;-57
2022/10/13 06:48:55;;;;;;;12.00;5.32;;;11.30;99.90;;;11.27;100.00;101266.53;5243220;28;20450;-57
2022/10/13 06:51:29;;;;;;;12.10;5.18;;;11.20;99.90;;;11.29;100.00;101277.94;5238938;28;20078;-58
2022/10/13 06:54:02;;;;;;;10.80;4.90;;;11.20;99.90;;;11.29;100.00;101276.22;5224696;28;20509;-58
2022/10/13 06:56:38;;;;;;;9.60;4.25;;;11.20;99.90;;;11.33;100.00;101285.94;5224196;28;20067;-57
2022/10/13 06:59:15;;;;;;;9.85;5.28;;;11.30;99.90;;;11.37;100.00;101282.63;5224423;28;20468;-58
2022/10/13 07:01:51;;;;;;;9.88;4.47;;;11.30;99.90;;;11.46;100.00;101286.41;5242990;28;20029;-57
2022/10/13 07:04:24;;;;;;;9.63;4.57;;;11.40;99.90;;;11.50;100.00;101277.88;5245096;28;20076;-57
2022/10/13 07:06:57;;;;;;;9.77;4.40;;;11.40;99.90;;;11.55;100.00;101284.19;5243751;28;20044;-57
2022/10/13 07:09:31;;;;;;;8.32;3.60;;;11.50;99.90;;;11.61;100.00;101282.69;5244999;28;20045;-57
2022/10/13 07:12:06;;;;;;;8.98;4.15;;;11.50;99.90;;;11.67;100.00;101282.00;5244673;28;20045;-57
2022/10/13 07:14:38;;;;;;;7.82;4.07;;;11.60;99.90;;;11.78;100.00;101285.03;5244915;28;20468;-57
2022/10/13 07:17:10;;;;;;;9.77;4.57;;;11.70;99.90;;;11.86;100.00;101283.63;5244734;28;20051;-57
2022/10/13 07:19:42;;;;;;;9.10;4.00;;;11.70;99.90;;;11.93;100.00;101291.78;5244748;28;20497;-58
2022/10/13 07:22:15;;;;;;;9.57;4.40;;;11.80;99.90;;;11.98;100.00;101294.53;5244758;28;20374;-58
2022/10/13 07:24:48;;;;;;;9.90;4.15;;;11.90;99.90;;;12.03;100.00;101287.75;5245009;28;20110;-58
2022/10/13 07:27:20;;;;;;;13.23;5.35;;;11.90;99.90;;;12.07;100.00;101281.84;5245104;28;20500;-57
2022/10/13 07:29:53;;;;;;;9.68;3.67;;;12.00;99.90;;;12.12;100.00;101287.19;5249086;28;20051;-58
2022/10/13 07:32:25;;;;;;;9.60;3.58;;;12.00;99.90;;;12.16;100.00;101284.75;5248854;28;20040;-58
2022/10/13 07:34:57;;;;;;;6.32;3.03;;;12.00;99.90;;;12.23;100.00;101289.38;5249173;28;20079;-58
2022/10/13 07:37:29;;;;;;;8.07;3.92;;;12.10;99.90;;;12.28;100.00;101284.31;5248867;28;20063;-57
2022/10/13 07:40:03;;;;;;;8.13;4.50;;;12.20;99.90;;;12.35;100.00;101288.94;5249052;28;20408;-59
2022/10/13 07:42:36;;;;;;;11.30;5.10;;;12.20;99.90;;;12.40;100.00;101294.31;5249091;28;20051;-57
2022/10/13 07:45:09;;;;;;;13.45;5.53;;;12.30;99.90;;;12.45;100.00;101297.97;5247481;28;20049;-58
2022/10/13 07:47:41;;;;;;;11.90;4.63;;;12.30;99.90;;;12.56;100.00;101291.41;5240109;28;20132;-58
2022/10/13 07:50:13;;;;;;;11.57;4.88;;;12.40;99.90;;;12.71;100.00;101284.09;5247736;28;20154;-58
2022/10/13 07:52:46;;;;;;;10.00;4.50;;;12.50;99.90;;;12.87;100.00;101276.75;5247224;28;20090;-58
2022/10/13 07:55:19;;;;;;;10.77;5.32;;;12.70;99.90;;;13.02;100.00;101272.00;5248499;28;20044;-58
2022/10/13 07:57:51;;;;;;;9.88;4.50;;;12.80;99.90;;;13.29;100.00;101272.03;5248494;28;20053;-58
2022/10/13 08:00:23;;;;;;;10.27;4.70;;;13.00;99.90;;;13.62;100.00;101266.91;5248447;28;20123;-56
2022/10/13 08:02:56;;;;;;;10.43;3.97;;;13.20;99.90;;;14.00;100.00;101259.28;5248101;28;20048;-57
2022/10/13 08:05:28;;;;;;;11.82;5.38;;;13.50;99.90;;;14.13;100.00;101266.66;5249014;28;20615;-58
2022/10/13 08:08:00;;;;;;;11.77;5.30;;;13.70;99.90;;;14.25;100.00;101272.25;5249325;28;20052;-58
2022/10/13 08:10:33;;;;;;;9.57;4.80;;;13.80;99.90;;;14.49;100.00;101276.41;5248934;28;20048;-58
2022/10/13 08:13:05;;;;;;;13.13;5.03;;;14.00;99.90;;;14.61;100.00;101280.25;5247640;28;20040;-57
2022/10/13 08:15:40;;;;;;;9.40;4.78;;;14.20;99.90;;;14.57;100.00;101277.50;5248003;28;20434;-57
2022/10/13 08:18:14;;;;;;;12.90;5.20;;;14.20;99.90;;;14.51;100.00;101279.97;5248199;28;20493;-57
2022/10/13 08:20:46;;;;;;;9.65;4.60;;;14.20;99.90;;;14.43;100.00;101273.59;5247677;28;20055;-57
2022/10/13 08:23:18;;;;;;;11.65;5.28;;;14.20;99.90;;;14.28;100.00;101268.78;5246473;28;20135;-57
2022/10/13 08:25:58;;;;;;;11.88;5.30;;;14.00;99.90;;;14.19;100.00;101274.69;5248577;28;20105;-57
2022/10/13 08:28:30;;;;;;;10.52;4.60;;;14.00;99.90;;;14.09;100.00;101276.19;5247970;28;20044;-57
2022/10/13 08:31:02;;;;;;;9.23;4.75;;;13.90;99.90;;;14.04;100.00;101279.50;5247515;28;20131;-57
2022/10/13 08:33:34;;;;;;;14.20;5.20;;;13.90;99.90;;;13.99;100.00;101278.50;5246336;28;20052;-57
2022/10/13 08:36:07;;;;;;;12.75;5.20;;;13.80;99.90;;;13.95;100.00;101284.47;5247681;28;20557;-57
2022/10/13 08:38:39;;;;;;;12.77;5.03;;;13.80;99.90;;;14.03;100.00;101283.00;5240505;28;20128;-57
2022/10/13 08:41:18;;;;;;;10.95;5.07;;;13.80;99.90;;;14.19;100.00;101279.06;5246336;28;20082;-57
2022/10/13 08:43:56;;;;;;;14.38;6.20;;;13.90;99.90;;;14.39;100.00;101276.13;5241352;28;20417;-57
2022/10/13 08:46:35;;;;;;;12.10;6.07;;;14.10;99.90;;;14.50;100.00;101278.19;5243396;28;20064;-57
2022/10/13 08:49:08;;;;;;;10.55;4.80;;;14.20;99.90;;;14.62;100.00;101273.25;5243528;28;20310;-57
2022/10/13 08:51:40;;;;;;;12.80;5.38;;;14.30;99.90;;;14.70;100.00;101271.72;5235487;28;20048;-57
2022/10/13 08:54:16;;;;;;;15.48;5.43;;;14.40;99.90;;;14.74;100.00;101278.84;5226388;28;20068;-57
2022/10/13 08:56:50;;;;;;;11.55;4.97;;;14.50;99.90;;;14.79;100.00;101271.06;5240876;28;20033;-57
2022/10/13 08:59:22;;;;;;;11.75;5.00;;;14.50;99.90;;;14.86;100.00;101259.84;5244238;28;20040;-57
2022/10/13 09:01:55;;;;;;;10.50;4.88;;;14.60;99.90;;;14.91;100.00;101259.13;5238584;28;20320;-57
2022/10/13 09:04:32;;;;;;;11.38;4.90;;;14.60;99.90;;;14.90;100.00;101259.97;5243794;28;20051;-57
2022/10/13 09:07:12;;;;;;;10.02;4.32;;;14.70;99.90;;;14.91;100.00;101251.25;5240132;28;20048;-57
2022/10/13 09:09:44;;;;;;;10.93;4.68;;;14.60;99.90;;;14.93;100.00;101249.56;5225449;28;20420;-57
2022/10/13 09:12:20;;;;;;;9.50;4.80;;;14.70;99.90;;;14.92;100.00;101257.38;5234772;28;20059;-57
2022/10/13 09:15:03;;;;;;;11.13;5.47;;;14.70;99.90;;;14.84;100.00;101251.06;5263353;28;20404;-57
2022/10/13 09:17:38;;;;;;;12.23;5.18;;;14.60;99.90;;;14.77;100.00;101257.91;5247606;28;20110;-57
2022/10/13 09:20:22;;;;;;;9.25;4.35;;;14.60;99.90;;;14.76;100.00;101256.13;5398892;22;20056;-54
2022/10/13 09:23:03;;;;;;;15.52;5.78;;;14.50;99.90;;;14.74;100.00;101251.69;5238161;28;20112;-54
2022/10/13 09:25:41;;;;;;;10.13;5.03;;;14.50;99.90;;;14.66;100.00;101254.09;5238457;28;20040;-53
2022/10/13 09:28:20;;;;;;;10.48;4.78;;;14.50;99.90;;;14.70;100.00;101249.84;5246823;28;20056;-53
2022/10/13 09:31:04;;;;;;;12.57;5.47;;;14.50;99.90;;;14.70;100.00;101240.22;5246591;28;20048;-53
2022/10/13 09:33:38;;;;;;;12.50;5.68;;;14.50;99.90;;;14.67;100.00;101245.41;5246557;28;20044;-53
2022/10/13 09:36:13;;;;;;;10.85;5.45;;;14.50;99.90;;;14.70;100.00;101253.34;5246903;28;20512;-52
2022/10/13 09:39:06;;;;;;;12.07;4.90;;;14.50;99.90;;;14.78;100.00;101249.16;5246785;28;20044;-53
2022/10/13 09:41:41;;;;;;;13.40;5.22;;;14.50;99.90;;;14.87;100.00;101243.28;5246882;28;20052;-54
2022/10/13 09:44:18;;;;;;;11.30;4.88;;;14.60;99.90;;;14.99;100.00;101247.91;5242882;28;20037;-53
2022/10/13 09:46:53;;;;;;;13.40;5.25;;;14.70;99.90;;;15.05;100.00;101248.94;5226237;28;20060;-55
2022/10/13 09:49:37;;;;;;;12.30;4.63;;;14.80;99.90;;;15.17;100.00;101248.34;5226318;28;20053;-53
2022/10/13 09:52:18;;;;;;;11.68;5.53;;;14.80;99.90;;;15.24;100.00;101255.53;5232993;28;20447;-53
2022/10/13 09:54:52;;;;;;;13.82;4.85;;;14.90;99.90;;;15.26;100.00;101243.34;5227130;28;20052;-53
2022/10/13 09:57:34;;;;;;;11.88;5.18;;;15.00;99.90;;;15.27;100.00;101239.84;5226101;28;20039;-55
2022/10/13 10:00:20;;;;;;;13.32;5.57;;;15.00;99.90;;;15.30;100.00;101233.78;5226154;28;20402;-54
2022/10/13 10:02:57;;;;;;;12.63;5.40;;;15.10;99.90;;;15.32;100.00;101240.84;5230695;28;20045;-52
2022/10/13 10:05:45;;;;;;;12.30;5.18;;;15.10;99.90;;;15.35;100.00;101232.13;5226899;28;20037;-55
2022/10/13 10:08:26;;;;;;;11.98;5.95;;;15.10;99.90;;;15.40;100.00;101239.28;5245709;28;20051;-53
2022/10/13 10:11:02;;;;;;;9.57;4.65;;;15.10;99.90;;;15.46;100.00;101233.28;5243379;28;20416;-53
2022/10/13 10:13:35;;;;;;;12.93;5.22;;;15.20;99.90;;;15.45;100.00;101229.75;5244224;28;20130;-53
2022/10/13 10:16:15;;;;;;;10.40;4.28;;;15.20;99.90;;;15.52;100.00;101232.47;5243052;28;20048;-53
2022/10/13 10:18:52;;;;;;;11.98;4.80;;;15.20;99.90;;;15.54;100.00;101234.31;5244340;28;20041;-54
2022/10/13 10:21:31;;;;;;;14.15;5.65;;;15.20;99.90;;;15.57;100.00;101228.22;5244029;28;20048;-53
2022/10/13 10:24:16;;;;;;;11.68;5.28;;;15.30;99.90;;;15.66;100.00;101226.72;5245036;28;20054;-53
2022/10/13 10:26:56;;;;;;;9.52;4.45;;;15.30;99.90;;;15.76;100.00;101222.53;5246259;28;20055;-53
2022/10/13 10:29:43;;;;;;;12.93;5.22;;;15.40;99.90;;;15.83;100.00;101221.81;5246037;28;20045;-54
2022/10/13 10:32:29;;;;;;;10.48;4.95;;;15.50;99.90;;;15.92;100.00;101213.22;5245633;28;20041;-53
2022/10/13 10:35:11;;;;;;;12.38;4.65;;;15.60;99.90;;;15.98;100.00;101205.47;5245972;28;20052;-58
2022/10/13 10:38:04;;;;;;;9.90;4.68;;;15.70;99.90;;;16.09;100.00;101203.91;5245622;28;20070;-58